createdAt,value
2018-12-24T00:03:50.694Z,10.10
2018-12-24T00:09:13.090Z,7.47
2018-12-24T00:14:29.867Z,6.60
2018-12-24T00:19:52.678Z,4.30
2018-12-24T00:25:08.305Z,3.23
2018-12-24T00:30:31.299Z,1.80
2018-12-24T00:35:34.937Z,2.50
2018-12-24T00:40:57.782Z,2.37
2018-12-24T00:46:12.995Z,6.23
2018-12-24T00:51:28.315Z,7.37
2018-12-24T00:56:51.257Z,8.63
2018-12-24T01:02:06.596Z,9.03
2018-12-24T01:07:29.501Z,11.80
2018-12-24T01:12:45.406Z,13.30
2018-12-24T01:18:08.348Z,12.93
2018-12-24T01:23:24.011Z,11.23
2018-12-24T01:28:47.171Z,13.27
2018-12-24T01:34:02.389Z,11.13
2018-12-24T01:39:24.967Z,10.83
2018-12-24T01:44:40.818Z,8.90
2018-12-24T01:50:03.404Z,8.90
2018-12-24T01:55:06.362Z,9.37
2018-12-24T02:00:28.781Z,9.20
2018-12-24T02:05:44.765Z,10.30
2018-12-24T02:11:07.404Z,11.40
2018-12-24T02:16:22.567Z,8.20
2018-12-24T02:21:38.164Z,10.30
2018-12-24T02:27:01.247Z,15.07
2018-12-24T02:32:16.747Z,16.13
2018-12-24T02:37:39.319Z,14.70
2018-12-24T02:42:55.221Z,15.90
2018-12-24T02:48:17.636Z,10.57
2018-12-24T02:53:33.665Z,9.07
2018-12-24T02:58:49.770Z,6.57
2018-12-24T03:04:05.916Z,8.40
2018-12-24T03:09:22.397Z,8.10
2018-12-24T03:14:38.166Z,8.17
2018-12-24T03:20:00.496Z,8.43
2018-12-24T03:25:15.952Z,9.47
2018-12-24T03:30:38.618Z,7.53
2018-12-24T03:35:57.536Z,6.00
2018-12-24T03:41:22.912Z,7.70
2018-12-24T03:46:38.224Z,6.37
2018-12-24T03:52:00.864Z,5.53
2018-12-24T03:57:16.882Z,6.57
2018-12-24T04:02:39.807Z,6.77
2018-12-24T04:07:55.977Z,5.33
2018-12-24T04:13:22.685Z,4.23
2018-12-24T04:18:57.234Z,6.40
2018-12-24T04:24:19.690Z,4.30
2018-12-24T04:29:35.085Z,3.77
2018-12-24T04:34:58.318Z,5.13
2018-12-24T04:40:14.555Z,3.30
2018-12-24T04:45:37.660Z,3.77
2018-12-24T04:50:56.027Z,4.00
2018-12-24T04:56:12.192Z,3.80
2018-12-24T05:01:28.521Z,5.27
2018-12-24T05:06:51.032Z,5.03
2018-12-24T05:12:06.600Z,4.60
2018-12-24T05:17:29.332Z,4.00
2018-12-24T05:22:45.172Z,5.43
2018-12-24T05:28:07.837Z,4.33
2018-12-24T05:33:24.350Z,5.03
2018-12-24T05:38:47.326Z,5.83
2018-12-24T05:44:03.005Z,5.60
2018-12-24T05:49:26.243Z,5.17
2018-12-24T05:54:41.416Z,4.70
2018-12-24T05:59:57.262Z,4.67
2018-12-24T06:05:12.665Z,4.20
2018-12-24T06:10:35.583Z,3.10
2018-12-24T06:15:51.168Z,3.67
2018-12-24T06:21:13.490Z,4.13
2018-12-24T06:26:28.903Z,3.73
2018-12-24T06:31:51.284Z,2.60
2018-12-24T06:37:06.872Z,3.47
2018-12-24T06:42:29.795Z,2.20
2018-12-24T06:47:46.221Z,2.60
2018-12-24T06:53:09.389Z,3.23
2018-12-24T06:58:24.513Z,2.60
2018-12-24T07:03:47.166Z,2.30
2018-12-24T07:09:04.466Z,4.00
2018-12-24T07:14:27.833Z,2.13
2018-12-24T07:19:43.437Z,2.30
2018-12-24T07:25:05.801Z,2.83
2018-12-24T07:30:21.610Z,2.40
2018-12-24T07:35:44.094Z,2.33
2018-12-24T07:40:59.805Z,2.50
2018-12-24T07:46:22.237Z,2.17
2018-12-24T07:51:38.561Z,3.67
2018-12-24T07:56:54.947Z,1.47
2018-12-24T08:02:11.150Z,3.03
2018-12-24T08:07:14.667Z,7.07
2018-12-24T08:12:30.288Z,3.93
2018-12-24T08:17:53.167Z,3.13
2018-12-24T08:23:09.265Z,4.23
2018-12-24T08:28:31.927Z,2.40
2018-12-24T08:33:48.418Z,2.87
2018-12-24T08:39:11.402Z,3.27
2018-12-24T08:44:26.904Z,2.93
2018-12-24T08:50:07.270Z,3.97
2018-12-24T08:55:09.726Z,3.13
2018-12-24T09:00:12.106Z,4.63
2018-12-24T09:05:14.431Z,3.97
2018-12-24T09:10:16.785Z,4.43
2018-12-24T09:15:19.014Z,5.63
2018-12-24T09:20:21.264Z,4.87
2018-12-24T09:25:23.741Z,5.63
2018-12-24T09:30:27.338Z,8.37
2018-12-24T09:35:30.133Z,4.93
2018-12-24T09:40:32.352Z,4.13
2018-12-24T09:45:35.360Z,6.93
2018-12-24T09:50:37.553Z,4.40
2018-12-24T09:55:40.285Z,4.23
2018-12-24T10:00:42.600Z,5.00
2018-12-24T10:05:45.550Z,3.53
2018-12-24T10:10:47.776Z,3.57
2018-12-24T10:15:51.022Z,4.70
2018-12-24T10:20:53.655Z,5.57
2018-12-24T10:25:55.866Z,5.13
2018-12-24T10:30:58.733Z,6.23
2018-12-24T10:36:01.418Z,3.63
2018-12-24T10:41:15.017Z,6.63
2018-12-24T10:46:17.545Z,6.93
2018-12-24T10:51:20.350Z,3.63
2018-12-24T10:56:22.563Z,4.13
2018-12-24T11:01:25.268Z,3.27
2018-12-24T11:06:28.387Z,5.00
2018-12-24T11:11:32.158Z,4.37
2018-12-24T11:16:34.388Z,4.37
2018-12-24T11:21:36.646Z,4.50
2018-12-24T11:26:39.478Z,5.53
2018-12-24T11:31:41.638Z,4.60
2018-12-24T11:36:44.067Z,7.60
2018-12-24T11:41:46.346Z,4.27
2018-12-24T11:46:48.916Z,7.33
2018-12-24T11:51:52.037Z,4.70
2018-12-24T11:56:54.580Z,4.20
2018-12-24T12:01:57.549Z,4.53
2018-12-24T12:07:00.039Z,3.23
2018-12-24T12:12:03.173Z,3.90
2018-12-24T12:17:05.580Z,4.17
2018-12-24T12:22:07.943Z,3.77
2018-12-24T12:27:10.378Z,4.07
2018-12-24T12:32:12.620Z,8.27
2018-12-24T12:37:15.099Z,3.30
2018-12-24T12:42:17.723Z,2.93
2018-12-24T12:47:33.263Z,4.73
2018-12-24T12:52:49.260Z,5.50
2018-12-24T12:58:11.581Z,3.57
2018-12-24T13:03:15.306Z,4.40
2018-12-24T13:08:37.622Z,3.97
2018-12-24T13:13:52.939Z,4.10
2018-12-24T13:19:15.812Z,3.23
2018-12-24T13:24:31.301Z,6.27
2018-12-24T13:29:53.991Z,4.33
2018-12-24T13:35:09.758Z,5.13
2018-12-24T13:40:32.445Z,4.30
2018-12-24T13:45:51.184Z,3.67
2018-12-24T13:51:13.796Z,4.20
2018-12-24T13:56:29.668Z,4.27
2018-12-24T14:01:52.507Z,4.77
2018-12-24T14:07:08.019Z,4.35
2018-12-24T14:12:30.470Z,3.83
2018-12-24T14:17:46.792Z,4.37
2018-12-24T14:23:09.199Z,2.77
2018-12-24T14:28:25.322Z,4.57
2018-12-24T14:33:47.728Z,3.80
2018-12-24T14:38:50.818Z,4.83
2018-12-24T14:43:53.078Z,3.80
2018-12-24T14:49:08.798Z,3.77
2018-12-24T14:54:24.133Z,3.77
2018-12-24T14:59:26.459Z,4.80
2018-12-24T15:04:50.018Z,4.10
2018-12-24T15:10:12.976Z,4.67
2018-12-24T15:15:35.211Z,4.43
2018-12-24T15:20:50.605Z,4.77
2018-12-24T15:26:12.585Z,5.90
2018-12-24T15:31:27.947Z,7.10
2018-12-24T15:36:50.423Z,5.13
2018-12-24T15:42:05.586Z,5.10
2018-12-24T15:47:27.560Z,19.00
2018-12-24T15:52:43.421Z,24.47
2018-12-24T15:58:05.786Z,7.20
2018-12-24T16:03:20.813Z,6.57
2018-12-24T16:08:43.193Z,7.50
2018-12-24T16:13:58.936Z,8.20
2018-12-24T16:19:21.131Z,7.80
2018-12-24T16:24:36.720Z,6.00
2018-12-24T16:29:58.858Z,6.57
2018-12-24T16:35:14.371Z,7.67
2018-12-24T16:40:36.409Z,7.30
2018-12-24T16:45:51.786Z,5.87
2018-12-24T16:51:14.585Z,7.90
2018-12-24T16:56:30.628Z,8.27
2018-12-24T17:01:53.359Z,8.90
2018-12-24T17:07:09.219Z,7.10
2018-12-24T17:12:31.436Z,6.83
2018-12-24T17:17:46.903Z,8.87
2018-12-24T17:23:09.090Z,7.17
2018-12-24T17:28:43.871Z,8.83
2018-12-24T17:34:06.470Z,7.13
2018-12-24T17:39:22.310Z,10.67
2018-12-24T17:44:44.808Z,8.57
2018-12-24T17:50:00.353Z,7.57
2018-12-24T17:55:23.300Z,11.17
2018-12-24T18:00:39.205Z,9.83
2018-12-24T18:06:01.696Z,10.23
2018-12-24T18:11:17.167Z,9.90
2018-12-24T18:16:39.245Z,9.77
2018-12-24T18:21:54.431Z,11.03
2018-12-24T18:27:16.353Z,9.93
2018-12-24T18:32:31.979Z,11.03
2018-12-24T18:37:54.129Z,10.30
2018-12-24T18:43:09.806Z,9.73
2018-12-24T18:48:32.258Z,9.73
2018-12-24T18:53:47.785Z,11.57
2018-12-24T18:59:10.622Z,10.20
2018-12-24T19:04:26.157Z,9.53
2018-12-24T19:09:48.065Z,12.63
2018-12-24T19:15:04.186Z,13.23
2018-12-24T19:20:20.059Z,9.83
2018-12-24T19:25:34.946Z,10.85
2018-12-24T19:30:56.892Z,10.13
2018-12-24T19:36:12.627Z,10.40
2018-12-24T19:41:34.978Z,10.30
2018-12-24T19:46:50.291Z,10.53
2018-12-24T19:52:12.445Z,9.97
2018-12-24T19:57:14.660Z,9.50
2018-12-24T20:02:30.804Z,10.47
2018-12-24T20:07:47.001Z,12.73
2018-12-24T20:13:09.414Z,9.90
2018-12-24T20:18:24.962Z,9.93
2018-12-24T20:23:47.684Z,11.07
2018-12-24T20:29:03.016Z,10.80
2018-12-24T20:34:25.195Z,10.13
2018-12-24T20:39:43.689Z,10.53
2018-12-24T20:45:05.984Z,10.10
2018-12-24T20:50:22.898Z,11.53
2018-12-24T20:55:45.047Z,11.10
2018-12-24T21:01:00.298Z,10.23
2018-12-24T21:06:15.838Z,12.13
2018-12-24T21:11:34.754Z,10.43
